Time;durP1;ratioP1;P1;durP2;ratioP2;P2;SDS_P1;SDS_P2;PMS_P1;PMS_P2;Temp;Humidity;BMP_temperature;BMP_pressure;BME280_temperature;BME280_humidity;BME280_pressure;Samples;Min_cycle;Max_cycle;Signal;HPM_P1;HPM_P2
2023/12/18 05:31:45;;;;;;;0.10;0.10;;;6.30;87.70;;;;;;5262836;23;20048;-75
2023/12/18 05:34:10;;;;;;;0.10;0.10;;;6.20;87.70;;;;;;4951488;29;20039;-77
2023/12/18 05:36:36;;;;;;;0.10;0.10;;;6.30;87.70;;;;;;4948341;29;20115;-75
2023/12/18 05:39:02;;;;;;;0.10;0.10;;;6.20;87.70;;;;;;4925650;29;20024;-75
2023/12/18 05:41:27;;;;;;;0.10;0.10;;;6.20;87.80;;;;;;4945737;29;20034;-77
2023/12/18 05:43:53;;;;;;;0.10;0.10;;;6.20;87.80;;;;;;4956941;29;20019;-78
2023/12/18 05:46:18;;;;;;;0.10;0.10;;;6.20;87.80;;;;;;4940785;29;20032;-77
2023/12/18 05:48:44;;;;;;;0.10;0.10;;;6.30;87.80;;;;;;4929710;29;20111;-74
2023/12/18 05:51:22;;;;;;;0.10;0.10;;;6.20;87.90;;;;;;4914955;29;20024;-76
2023/12/18 05:53:48;;;;;;;0.10;0.10;;;6.20;87.90;;;;;;4902013;29;20111;-75
2023/12/18 05:56:13;;;;;;;0.10;0.10;;;6.30;87.70;;;;;;4918481;29;20152;-74
2023/12/18 05:58:39;;;;;;;0.10;0.10;;;6.30;87.70;;;;;;4918613;29;20036;-75
2023/12/18 06:01:05;;;;;;;0.10;0.10;;;6.30;87.70;;;;;;4929767;29;20502;-76
2023/12/18 06:03:30;;;;;;;0.10;0.10;;;6.30;87.70;;;;;;4952738;29;20055;-74
2023/12/18 06:05:56;;;;;;;0.10;0.10;;;6.30;87.70;;;;;;4910467;29;20178;-76
2023/12/18 06:08:21;;;;;;;0.10;0.10;;;6.30;87.70;;;;;;4956670;29;20023;-75
2023/12/18 06:10:47;;;;;;;0.10;0.10;;;6.30;87.40;;;;;;4956845;29;20047;-77
2023/12/18 06:13:13;;;;;;;0.10;0.10;;;6.40;87.70;;;;;;4943140;29;20570;-74
2023/12/18 06:15:39;;;;;;;0.10;0.10;;;6.40;87.60;;;;;;4918457;29;20040;-78
2023/12/18 06:18:05;;;;;;;0.10;0.10;;;6.40;87.40;;;;;;4918060;29;20040;-76
2023/12/18 06:20:30;;;;;;;0.10;0.10;;;6.40;87.50;;;;;;4901524;29;20119;-77
2023/12/18 06:22:56;;;;;;;0.10;0.10;;;6.40;87.50;;;;;;4928947;29;20096;-77
2023/12/18 06:25:21;;;;;;;0.10;0.10;;;6.40;87.50;;;;;;4937219;29;20032;-77
2023/12/18 06:27:47;;;;;;;0.10;0.10;;;6.30;87.60;;;;;;4921653;29;20035;-78
2023/12/18 06:30:13;;;;;;;0.10;0.10;;;6.40;87.50;;;;;;4931787;29;20024;-76
2023/12/18 06:32:39;;;;;;;0.10;0.10;;;6.40;87.70;;;;;;4937890;29;20048;-76
2023/12/18 06:35:05;;;;;;;0.10;0.10;;;6.40;87.60;;;;;;4919736;29;20035;-77
2023/12/18 06:37:31;;;;;;;0.10;0.10;;;6.40;87.60;;;;;;4921781;29;20038;-76
2023/12/18 06:39:56;;;;;;;0.10;0.10;;;6.40;87.50;;;;;;4925098;29;20381;-77
2023/12/18 06:42:22;;;;;;;0.10;0.10;;;6.40;87.50;;;;;;4923133;29;20506;-76
2023/12/18 06:44:47;;;;;;;0.10;0.10;;;6.50;87.40;;;;;;4934289;29;20039;-77
2023/12/18 06:47:13;;;;;;;0.10;0.10;;;6.40;87.60;;;;;;4919259;29;20046;-76
2023/12/18 06:49:38;;;;;;;0.10;0.10;;;6.40;87.70;;;;;;4934780;29;20020;-76
2023/12/18 06:52:05;;;;;;;0.10;0.10;;;6.30;87.70;;;;;;4913776;29;20494;-77
2023/12/18 06:54:30;;;;;;;0.10;0.10;;;6.30;87.70;;;;;;4934397;29;20123;-76
2023/12/18 06:56:56;;;;;;;0.10;0.10;;;6.30;87.80;;;;;;4935467;29;20055;-75
2023/12/18 06:59:21;;;;;;;0.10;0.10;;;6.30;87.80;;;;;;4935415;29;20769;-78
2023/12/18 07:01:47;;;;;;;0.10;0.10;;;6.30;87.70;;;;;;4930528;29;20036;-77
2023/12/18 07:04:13;;;;;;;0.10;0.10;;;6.30;87.80;;;;;;4915795;29;20083;-75
2023/12/18 07:06:39;;;;;;;0.10;0.10;;;6.20;87.90;;;;;;4935012;29;20028;-76
2023/12/18 07:09:04;;;;;;;0.10;0.10;;;6.20;88.00;;;;;;4935691;29;20038;-76
2023/12/18 07:11:30;;;;;;;0.10;0.10;;;6.20;88.10;;;;;;4937301;29;20039;-76
2023/12/18 07:13:56;;;;;;;0.10;0.10;;;6.20;87.90;;;;;;4918812;29;20154;-76
2023/12/18 07:16:22;;;;;;;0.10;0.10;;;6.30;88.00;;;;;;4935267;29;20055;-76
2023/12/18 07:18:48;;;;;;;0.10;0.10;;;6.30;87.60;;;;;;4938114;29;20054;-75
2023/12/18 07:21:14;;;;;;;0.10;0.10;;;6.30;87.90;;;;;;4930390;29;20522;-76
2023/12/18 07:23:42;;;;;;;0.10;0.10;;;6.20;87.80;;;;;;4919102;29;20899;-75
2023/12/18 07:26:12;;;;;;;0.10;0.10;;;6.20;88.10;;;;;;4919359;29;20039;-76
2023/12/18 07:28:41;;;;;;;0.10;0.10;;;6.20;88.00;;;;;;4901939;29;20028;-75
2023/12/18 07:31:07;;;;;;;0.10;0.10;;;6.20;88.00;;;;;;4918921;29;20051;-75
2023/12/18 07:33:33;;;;;;;0.10;0.10;;;6.20;88.10;;;;;;4922296;29;20020;-75
2023/12/18 07:35:58;;;;;;;0.10;0.10;;;6.30;88.00;;;;;;4932682;29;20087;-76
2023/12/18 07:38:24;;;;;;;0.10;0.10;;;6.30;87.80;;;;;;4919104;29;20028;-75
2023/12/18 07:40:49;;;;;;;0.17;0.13;;;6.30;88.10;;;;;;4940417;29;20071;-75
2023/12/18 07:43:15;;;;;;;0.10;0.10;;;6.40;87.90;;;;;;4957027;29;20106;-75
2023/12/18 07:45:41;;;;;;;0.10;0.10;;;6.30;87.80;;;;;;4935568;29;20036;-75
2023/12/18 07:48:07;;;;;;;0.10;0.10;;;6.30;87.80;;;;;;4937567;29;20047;-76
2023/12/18 07:50:32;;;;;;;0.10;0.10;;;6.40;87.90;;;;;;4920324;29;20043;-75
2023/12/18 07:52:58;;;;;;;0.20;0.20;;;6.40;87.50;;;;;;4937952;29;20107;-77
2023/12/18 07:55:23;;;;;;;0.10;0.10;;;6.40;87.60;;;;;;4927794;29;20487;-75
2023/12/18 07:57:49;;;;;;;0.10;0.10;;;6.40;87.90;;;;;;4919289;29;20024;-76
2023/12/18 08:00:15;;;;;;;0.10;0.10;;;6.40;87.80;;;;;;4915426;29;20542;-75
2023/12/18 08:02:42;;;;;;;0.10;0.10;;;6.40;87.50;;;;;;4918820;29;20021;-76
2023/12/18 08:05:07;;;;;;;0.10;0.10;;;6.40;87.80;;;;;;4934628;29;20039;-76
2023/12/18 08:07:33;;;;;;;0.10;0.10;;;6.40;87.60;;;;;;4926697;29;20491;-75
2023/12/18 08:09:58;;;;;;;0.10;0.10;;;6.40;87.80;;;;;;4918897;29;20867;-76
2023/12/18 08:12:24;;;;;;;0.10;0.10;;;6.40;87.60;;;;;;4918725;29;20040;-75
2023/12/18 08:14:51;;;;;;;0.10;0.10;;;6.30;87.60;;;;;;4918465;29;20053;-77
2023/12/18 08:17:16;;;;;;;0.10;0.10;;;6.40;87.60;;;;;;4918714;29;20032;-75
2023/12/18 08:19:49;;;;;;;0.10;0.10;;;6.50;87.70;;;;;;4921633;29;20036;-76
2023/12/18 08:22:14;;;;;;;0.10;0.10;;;6.50;87.50;;;;;;4922265;29;20024;-78
2023/12/18 08:24:41;;;;;;;0.10;0.10;;;6.50;87.60;;;;;;4929073;29;20032;-76
2023/12/18 08:27:06;;;;;;;0.10;0.10;;;6.50;87.40;;;;;;4924515;29;20082;-75
2023/12/18 08:29:32;;;;;;;0.15;0.15;;;6.40;87.10;;;;;;4933729;29;20055;-75
2023/12/18 08:31:58;;;;;;;0.10;0.10;;;6.50;87.60;;;;;;4940461;29;20043;-76
2023/12/18 08:34:24;;;;;;;0.10;0.10;;;6.50;87.50;;;;;;4936141;29;20039;-77
2023/12/18 08:36:50;;;;;;;0.10;0.10;;;6.50;87.50;;;;;;4937775;29;20075;-76
2023/12/18 08:39:16;;;;;;;0.10;0.10;;;6.50;87.50;;;;;;4936943;29;20028;-76
2023/12/18 08:41:46;;;;;;;0.10;0.10;;;6.40;87.30;;;;;;4932857;29;20080;-76
2023/12/18 08:44:11;;;;;;;0.10;0.10;;;6.50;87.50;;;;;;4932561;29;20070;-76
2023/12/18 08:46:38;;;;;;;0.10;0.10;;;6.50;87.20;;;;;;4913147;29;20032;-75
2023/12/18 08:49:03;;;;;;;0.17;0.17;;;6.50;87.20;;;;;;4916058;29;20406;-77
2023/12/18 08:51:29;;;;;;;0.10;0.10;;;6.50;87.30;;;;;;4933417;29;20019;-76
2023/12/18 08:53:55;;;;;;;0.10;0.10;;;6.60;87.20;;;;;;4923704;29;20051;-76
2023/12/18 08:56:21;;;;;;;0.10;0.10;;;6.40;87.00;;;;;;4918622;29;20031;-79
2023/12/18 08:58:46;;;;;;;0.10;0.10;;;6.40;87.10;;;;;;4931527;29;20038;-77
2023/12/18 09:01:12;;;;;;;0.10;0.10;;;6.40;87.30;;;;;;4931082;29;20509;-77
2023/12/18 09:03:38;;;;;;;0.10;0.10;;;6.40;87.50;;;;;;4937970;29;20094;-78
2023/12/18 09:06:04;;;;;;;0.10;0.10;;;6.50;87.40;;;;;;4931672;29;20053;-77
2023/12/18 09:08:39;;;;;;;0.10;0.10;;;6.60;87.20;;;;;;4916241;29;20083;-78
2023/12/18 09:11:06;;;;;;;0.10;0.10;;;6.50;87.30;;;;;;4929944;29;20023;-78
2023/12/18 09:13:34;;;;;;;0.10;0.10;;;6.50;87.00;;;;;;4934192;29;20024;-78
2023/12/18 09:16:02;;;;;;;0.10;0.10;;;6.50;87.30;;;;;;4931910;29;20092;-78
2023/12/18 09:18:27;;;;;;;0.10;0.10;;;6.50;87.30;;;;;;4929843;29;20107;-78
2023/12/18 09:20:53;;;;;;;0.10;0.10;;;6.50;87.00;;;;;;4932537;29;20047;-78
2023/12/18 09:23:18;;;;;;;0.10;0.10;;;6.60;87.30;;;;;;4930798;29;20035;-78
2023/12/18 09:25:44;;;;;;;0.10;0.10;;;6.60;87.10;;;;;;4930229;29;20510;-78
2023/12/18 09:28:10;;;;;;;0.20;0.20;;;6.60;87.00;;;;;;4922197;29;20040;-78
2023/12/18 09:30:35;;;;;;;0.10;0.10;;;6.60;86.80;;;;;;4934465;29;20024;-78
2023/12/18 09:33:01;;;;;;;0.10;0.10;;;6.60;86.70;;;;;;4920403;29;20115;-78
2023/12/18 09:35:26;;;;;;;0.10;0.10;;;6.60;87.10;;;;;;4908547;29;20036;-78
2023/12/18 09:37:53;;;;;;;0.10;0.10;;;6.60;87.00;;;;;;4928044;29;20030;-77
2023/12/18 09:40:18;;;;;;;0.10;0.10;;;6.60;86.90;;;;;;4928632;29;20021;-78
2023/12/18 09:42:53;;;;;;;0.10;0.10;;;6.60;86.70;;;;;;4920116;29;20584;-78
2023/12/18 09:45:25;;;;;;;0.10;0.10;;;6.70;87.00;;;;;;4933026;29;20144;-78
2023/12/18 09:47:51;;;;;;;0.10;0.10;;;6.70;87.10;;;;;;4929014;29;20028;-78
2023/12/18 09:50:18;;;;;;;0.10;0.10;;;6.80;86.60;;;;;;4938649;29;20530;-78
2023/12/18 09:53:02;;;;;;;0.10;0.10;;;6.80;86.30;;;;;;4938489;29;20115;-78
2023/12/18 09:55:31;;;;;;;0.10;0.10;;;6.80;86.60;;;;;;4934850;29;20517;-78
2023/12/18 09:57:59;;;;;;;0.10;0.10;;;6.80;86.80;;;;;;4936072;29;20024;-78
2023/12/18 10:00:25;;;;;;;0.10;0.10;;;6.90;86.50;;;;;;4939120;29;20034;-79
2023/12/18 10:02:52;;;;;;;0.10;0.10;;;6.90;86.40;;;;;;4919039;29;20031;-77
2023/12/18 10:05:17;;;;;;;0.10;0.10;;;6.90;86.30;;;;;;4921452;29;20035;-77
2023/12/18 10:07:43;;;;;;;0.10;0.10;;;6.90;86.00;;;;;;4938329;29;20039;-78
2023/12/18 10:10:09;;;;;;;0.10;0.10;;;6.80;86.10;;;;;;4918356;29;20175;-77
2023/12/18 10:12:38;;;;;;;0.10;0.10;;;6.90;86.50;;;;;;4934320;29;20023;-78
2023/12/18 10:15:14;;;;;;;0.10;0.10;;;7.00;86.20;;;;;;4907837;29;20042;-77
2023/12/18 10:17:43;;;;;;;0.10;0.10;;;6.90;85.50;;;;;;4919013;29;20031;-77
2023/12/18 10:20:11;;;;;;;0.10;0.10;;;6.90;86.00;;;;;;4926954;29;20167;-78
2023/12/18 10:22:40;;;;;;;0.10;0.10;;;6.90;85.90;;;;;;4938375;29;20120;-78
2023/12/18 10:25:06;;;;;;;0.10;0.10;;;7.10;86.20;;;;;;4921220;29;20402;-78
2023/12/18 10:27:33;;;;;;;0.10;0.10;;;7.10;85.80;;;;;;4920075;29;20039;-77
2023/12/18 10:30:00;;;;;;;0.10;0.10;;;7.00;85.90;;;;;;4921529;29;20035;-77
2023/12/18 10:32:29;;;;;;;0.10;0.10;;;7.10;85.90;;;;;;4918542;29;20044;-77
2023/12/18 10:34:55;;;;;;;0.10;0.10;;;7.20;85.90;;;;;;4933535;29;20059;-77
2023/12/18 10:37:25;;;;;;;0.10;0.10;;;7.20;85.70;;;;;;4918668;29;20032;-77
2023/12/18 10:39:53;;;;;;;0.10;0.10;;;7.20;85.70;;;;;;4934756;29;20082;-76
2023/12/18 10:42:36;;;;;;;0.10;0.10;;;7.20;85.60;;;;;;4934465;29;20020;-77
2023/12/18 10:45:06;;;;;;;0.10;0.10;;;7.30;85.60;;;;;;4929965;29;20032;-77
2023/12/18 10:47:32;;;;;;;0.10;0.10;;;7.30;85.30;;;;;;4931066;29;20566;-77
2023/12/18 10:50:00;;;;;;;0.10;0.10;;;7.30;85.30;;;;;;4913674;29;20024;-77
2023/12/18 10:52:29;;;;;;;0.10;0.10;;;7.40;85.30;;;;;;4936237;29;20020;-77
2023/12/18 10:55:00;;;;;;;0.10;0.10;;;7.40;85.10;;;;;;4932327;29;20020;-77
2023/12/18 10:57:26;;;;;;;0.10;0.10;;;7.40;85.10;;;;;;4919832;29;20032;-77
2023/12/18 10:59:53;;;;;;;0.10;0.10;;;7.40;85.00;;;;;;4917860;29;20063;-77
2023/12/18 11:02:19;;;;;;;0.10;0.10;;;7.40;85.20;;;;;;4935303;29;20039;-77
2023/12/18 11:04:48;;;;;;;0.10;0.10;;;7.50;85.00;;;;;;4921103;29;20035;-77
2023/12/18 11:07:19;;;;;;;0.10;0.10;;;7.50;85.00;;;;;;4920236;29;20035;-77
2023/12/18 11:09:45;;;;;;;0.10;0.10;;;7.40;84.50;;;;;;4929716;29;20032;-77
2023/12/18 11:12:14;;;;;;;0.10;0.10;;;7.40;85.30;;;;;;4924265;29;20071;-77
2023/12/18 11:15:14;;;;;;;0.10;0.10;;;7.30;84.60;;;;;;4913293;29;20047;-77
2023/12/18 11:18:05;;;;;;;0.10;0.10;;;7.30;85.10;;;;;;4935842;29;20028;-77
2023/12/18 11:20:36;;;;;;;0.10;0.10;;;7.30;85.10;;;;;;4930573;29;20047;-77
2023/12/18 11:23:02;;;;;;;0.10;0.10;;;7.20;85.30;;;;;;4927078;29;20107;-77
2023/12/18 11:25:32;;;;;;;0.10;0.10;;;7.30;85.30;;;;;;4930294;29;20160;-77
2023/12/18 11:28:02;;;;;;;0.10;0.10;;;7.30;85.20;;;;;;4932255;29;20056;-77
2023/12/18 11:30:29;;;;;;;0.10;0.10;;;7.30;84.90;;;;;;4927617;29;20031;-77
2023/12/18 11:32:57;;;;;;;0.10;0.10;;;7.30;85.10;;;;;;4927707;29;20018;-76
2023/12/18 11:35:30;;;;;;;0.10;0.10;;;7.40;85.30;;;;;;4930941;29;20102;-76
2023/12/18 11:38:15;;;;;;;0.10;0.10;;;7.50;85.10;;;;;;4929982;29;20459;-76
2023/12/18 11:40:42;;;;;;;0.10;0.10;;;7.50;85.20;;;;;;4930652;29;20426;-77
2023/12/18 11:43:12;;;;;;;0.10;0.10;;;7.50;84.90;;;;;;4922228;29;20043;-77
2023/12/18 11:45:42;;;;;;;0.10;0.10;;;7.40;84.90;;;;;;4909898;29;20051;-77
2023/12/18 11:48:12;;;;;;;0.10;0.10;;;7.60;85.00;;;;;;4937929;29;20023;-78
2023/12/18 11:50:38;;;;;;;0.15;0.15;;;7.60;85.00;;;;;;4923340;29;20056;-77
2023/12/18 11:53:17;;;;;;;0.10;0.10;;;7.60;84.60;;;;;;4908266;29;20028;-77
2023/12/18 11:55:47;;;;;;;0.10;0.10;;;7.60;84.60;;;;;;4941392;29;20024;-76
2023/12/18 11:58:14;;;;;;;0.10;0.10;;;7.60;84.40;;;;;;4935829;29;20036;-75
2023/12/18 12:00:40;;;;;;;0.10;0.10;;;7.60;84.40;;;;;;4944737;29;20030;-76
2023/12/18 12:03:06;;;;;;;0.10;0.10;;;7.70;84.70;;;;;;4943199;29;20442;-74
2023/12/18 12:05:32;;;;;;;0.10;0.10;;;7.70;84.50;;;;;;4935244;29;20035;-75
2023/12/18 12:08:00;;;;;;;0.10;0.10;;;7.70;84.70;;;;;;4941014;29;20034;-75
2023/12/18 12:10:26;;;;;;;0.20;0.20;;;7.70;84.40;;;;;;4924287;29;20032;-75
2023/12/18 12:12:58;;;;;;;0.10;0.10;;;7.70;84.60;;;;;;4930500;29;20126;-75
2023/12/18 12:15:24;;;;;;;0.10;0.10;;;7.80;84.30;;;;;;4905559;29;20032;-75
2023/12/18 12:18:06;;;;;;;0.10;0.10;;;7.80;84.60;;;;;;4922533;29;20095;-75
2023/12/18 12:20:34;;;;;;;0.10;0.10;;;7.80;84.40;;;;;;4905720;29;20038;-75
2023/12/18 12:23:00;;;;;;;0.10;0.10;;;7.80;84.30;;;;;;4940034;29;20082;-75
2023/12/18 12:25:26;;;;;;;0.10;0.10;;;7.80;84.30;;;;;;4940895;29;20487;-78
2023/12/18 12:27:52;;;;;;;0.10;0.10;;;7.80;84.40;;;;;;4941002;29;20091;-76
2023/12/18 12:30:18;;;;;;;0.10;0.10;;;7.80;84.50;;;;;;4936917;29;20546;-75
2023/12/18 12:32:48;;;;;;;0.10;0.10;;;7.90;84.60;;;;;;4937055;29;20596;-75
2023/12/18 12:35:16;;;;;;;0.10;0.10;;;7.90;84.40;;;;;;4918009;29;20046;-74
2023/12/18 12:37:42;;;;;;;0.10;0.10;;;7.90;84.40;;;;;;4931841;29;20024;-76
2023/12/18 12:40:09;;;;;;;0.10;0.10;;;7.80;84.30;;;;;;4918613;29;20035;-75
2023/12/18 12:42:38;;;;;;;0.10;0.10;;;7.80;84.30;;;;;;4937323;29;20128;-76
2023/12/18 12:45:11;;;;;;;0.10;0.10;;;7.70;84.40;;;;;;4917473;29;20043;-75
2023/12/18 12:47:39;;;;;;;0.10;0.10;;;7.80;84.40;;;;;;4932126;29;20028;-75
2023/12/18 12:50:06;;;;;;;0.10;0.10;;;7.80;84.50;;;;;;4913646;29;20395;-75
2023/12/18 12:52:42;;;;;;;0.10;0.10;;;7.90;84.50;;;;;;4931963;29;20111;-75
2023/12/18 12:55:08;;;;;;;0.10;0.10;;;7.90;84.30;;;;;;4914318;29;20032;-76
2023/12/18 12:57:33;;;;;;;0.10;0.10;;;7.90;84.10;;;;;;4931899;29;20390;-75
2023/12/18 12:59:59;;;;;;;0.10;0.10;;;8.00;84.20;;;;;;4914509;29;20020;-76
2023/12/18 13:02:26;;;;;;;0.10;0.10;;;7.90;83.90;;;;;;4914709;29;20028;-76
2023/12/18 13:04:55;;;;;;;0.10;0.10;;;7.90;84.30;;;;;;4914624;29;20036;-75
2023/12/18 13:07:22;;;;;;;0.10;0.10;;;7.90;84.10;;;;;;4931500;29;20031;-76
2023/12/18 13:09:48;;;;;;;0.10;0.10;;;7.90;84.20;;;;;;4931939;29;20483;-76
2023/12/18 13:12:14;;;;;;;0.10;0.10;;;7.90;84.30;;;;;;4916080;29;20464;-76
2023/12/18 13:14:45;;;;;;;0.10;0.10;;;7.90;84.20;;;;;;4914594;29;20455;-75
2023/12/18 13:17:11;;;;;;;0.10;0.10;;;7.90;84.30;;;;;;4914888;29;20410;-76
2023/12/18 13:19:37;;;;;;;0.10;0.10;;;7.90;84.00;;;;;;4912952;29;20111;-75
2023/12/18 13:22:03;;;;;;;0.10;0.10;;;7.90;84.40;;;;;;4930249;29;20055;-76
2023/12/18 13:24:30;;;;;;;0.10;0.10;;;7.90;84.50;;;;;;4930539;29;20015;-76
2023/12/18 13:26:56;;;;;;;0.10;0.10;;;8.00;84.40;;;;;;4913889;29;20035;-77
2023/12/18 13:29:22;;;;;;;0.10;0.10;;;8.00;84.30;;;;;;4914596;29;20058;-77
2023/12/18 13:31:48;;;;;;;0.10;0.10;;;8.00;84.30;;;;;;4931163;29;20056;-77
2023/12/18 13:34:14;;;;;;;0.10;0.10;;;8.00;84.40;;;;;;4932372;29;20024;-77
2023/12/18 13:36:40;;;;;;;0.10;0.10;;;8.00;84.40;;;;;;4934893;29;20035;-75
2023/12/18 13:39:07;;;;;;;0.10;0.10;;;8.00;84.40;;;;;;4929450;29;20402;-76
2023/12/18 13:41:34;;;;;;;0.10;0.10;;;8.00;84.10;;;;;;4931133;29;20016;-76
2023/12/18 13:44:00;;;;;;;0.10;0.10;;;7.90;84.50;;;;;;4930205;29;20026;-76
2023/12/18 13:46:26;;;;;;;0.10;0.10;;;7.90;84.70;;;;;;4912425;29;20031;-76
2023/12/18 13:48:52;;;;;;;0.10;0.10;;;7.90;84.50;;;;;;4930879;29;20031;-75
2023/12/18 13:51:17;;;;;;;0.10;0.10;;;7.80;84.40;;;;;;4933254;29;20022;-76
2023/12/18 13:53:43;;;;;;;0.10;0.10;;;7.90;84.60;;;;;;4929242;29;20028;-76
2023/12/18 13:56:09;;;;;;;0.10;0.10;;;7.80;84.50;;;;;;4913417;29;20046;-76
2023/12/18 13:58:35;;;;;;;0.10;0.10;;;7.80;84.90;;;;;;4930438;29;20020;-76
2023/12/18 14:01:01;;;;;;;0.10;0.10;;;7.80;84.60;;;;;;4929472;29;20052;-76
2023/12/18 14:03:27;;;;;;;0.10;0.10;;;7.90;84.90;;;;;;4930117;29;20412;-76
2023/12/18 14:05:53;;;;;;;0.10;0.10;;;7.90;84.60;;;;;;4930779;29;20034;-76
2023/12/18 14:08:18;;;;;;;0.10;0.10;;;7.90;84.70;;;;;;4931059;29;20028;-76
2023/12/18 14:10:44;;;;;;;0.10;0.10;;;7.80;84.70;;;;;;4911657;29;20032;-76
2023/12/18 14:13:09;;;;;;;0.10;0.10;;;7.90;84.70;;;;;;4912792;29;20035;-76
2023/12/18 14:15:35;;;;;;;0.10;0.10;;;7.80;84.80;;;;;;4930066;29;20452;-76
2023/12/18 14:18:01;;;;;;;0.10;0.10;;;7.90;84.80;;;;;;4912870;29;20031;-76
2023/12/18 14:20:28;;;;;;;0.10;0.10;;;7.80;84.80;;;;;;4932718;29;20113;-76
2023/12/18 14:22:54;;;;;;;0.10;0.10;;;7.80;84.90;;;;;;4931885;29;20024;-76
2023/12/18 14:25:20;;;;;;;0.10;0.10;;;7.70;84.90;;;;;;4916556;29;20028;-76
2023/12/18 14:27:45;;;;;;;0.10;0.10;;;7.70;85.20;;;;;;4931000;29;20032;-76
2023/12/18 14:30:11;;;;;;;0.10;0.10;;;7.80;85.50;;;;;;4934971;29;20024;-76
2023/12/18 14:32:37;;;;;;;0.10;0.10;;;7.80;85.20;;;;;;4933328;29;20198;-76
2023/12/18 14:35:03;;;;;;;0.10;0.10;;;7.70;85.20;;;;;;4930133;29;20494;-76
2023/12/18 14:37:29;;;;;;;0.10;0.10;;;7.80;85.50;;;;;;4932237;29;20031;-76
2023/12/18 14:39:54;;;;;;;0.10;0.10;;;7.80;85.20;;;;;;4934163;29;20143;-76
2023/12/18 14:42:20;;;;;;;0.10;0.10;;;7.80;85.50;;;;;;4913725;29;20055;-76
2023/12/18 14:44:46;;;;;;;0.10;0.10;;;7.80;85.20;;;;;;4913303;29;20090;-76
2023/12/18 14:47:12;;;;;;;0.10;0.10;;;7.80;85.50;;;;;;4880572;29;20036;-76
2023/12/18 14:49:37;;;;;;;0.10;0.10;;;7.80;85.20;;;;;;4934012;29;20047;-76
2023/12/18 14:52:04;;;;;;;0.10;0.10;;;7.80;85.40;;;;;;4930116;29;20157;-76
2023/12/18 14:54:30;;;;;;;0.10;0.10;;;7.90;85.50;;;;;;4914706;29;20052;-76
2023/12/18 14:56:56;;;;;;;0.10;0.10;;;7.90;85.30;;;;;;4911695;29;20028;-76
2023/12/18 14:59:22;;;;;;;0.10;0.10;;;7.90;85.00;;;;;;4911151;29;20466;-76
2023/12/18 15:01:48;;;;;;;0.10;0.10;;;7.90;85.00;;;;;;4914901;29;20035;-76
2023/12/18 15:04:14;;;;;;;0.10;0.10;;;7.80;85.20;;;;;;4914549;29;20047;-76
2023/12/18 15:06:40;;;;;;;0.10;0.10;;;7.80;85.30;;;;;;4930262;29;20043;-76
2023/12/18 15:09:06;;;;;;;0.10;0.10;;;7.80;85.20;;;;;;4913394;29;20095;-77
2023/12/18 15:11:31;;;;;;;0.10;0.10;;;7.80;85.50;;;;;;4927080;29;20019;-78
2023/12/18 15:13:58;;;;;;;0.10;0.10;;;7.80;85.50;;;;;;4933587;29;20055;-78
2023/12/18 15:16:24;;;;;;;0.10;0.10;;;7.90;85.40;;;;;;4928399;29;20023;-77
2023/12/18 15:18:51;;;;;;;0.10;0.10;;;7.90;85.20;;;;;;4912555;29;20063;-77
2023/12/18 15:21:18;;;;;;;0.10;0.10;;;7.90;85.30;;;;;;4929496;29;20035;-78
2023/12/18 15:23:43;;;;;;;0.10;0.10;;;7.80;85.30;;;;;;4930033;29;20070;-78
2023/12/18 15:26:09;;;;;;;0.10;0.10;;;7.80;85.40;;;;;;4927109;29;20064;-78
2023/12/18 15:28:37;;;;;;;0.10;0.10;;;7.80;85.40;;;;;;4929942;29;20032;-78
2023/12/18 15:31:03;;;;;;;0.10;0.10;;;7.80;85.50;;;;;;4931480;29;20039;-78
2023/12/18 15:33:29;;;;;;;0.10;0.10;;;7.80;85.40;;;;;;4940398;29;20667;-77
2023/12/18 15:35:55;;;;;;;0.10;0.10;;;7.80;85.30;;;;;;4933658;29;20036;-78
2023/12/18 15:38:20;;;;;;;0.10;0.10;;;7.80;85.40;;;;;;4932808;29;20135;-78
2023/12/18 15:40:46;;;;;;;0.10;0.10;;;7.80;85.20;;;;;;4928572;29;20508;-76
2023/12/18 15:43:12;;;;;;;0.10;0.10;;;7.70;85.40;;;;;;4916148;29;20509;-77
2023/12/18 15:45:38;;;;;;;0.10;0.10;;;7.70;85.60;;;;;;4926205;29;20049;-83
2023/12/18 15:48:04;;;;;;;0.10;0.10;;;7.80;85.60;;;;;;4930168;29;20055;-77
2023/12/18 15:50:29;;;;;;;0.10;0.10;;;7.70;85.40;;;;;;4917405;29;20034;-77
2023/12/18 15:52:55;;;;;;;0.10;0.10;;;7.70;85.60;;;;;;4929127;29;20118;-78
2023/12/18 15:55:20;;;;;;;0.10;0.10;;;7.60;85.70;;;;;;4933648;29;20391;-78
2023/12/18 15:57:46;;;;;;;0.10;0.10;;;7.70;86.00;;;;;;4929924;29;20032;-78
2023/12/18 16:00:12;;;;;;;0.10;0.10;;;7.60;85.70;;;;;;4934125;29;20152;-77
2023/12/18 16:02:38;;;;;;;0.10;0.10;;;7.70;86.00;;;;;;4927623;29;20039;-77
2023/12/18 16:05:04;;;;;;;0.10;0.10;;;7.70;85.90;;;;;;4929589;29;20035;-77
2023/12/18 16:07:29;;;;;;;0.10;0.10;;;7.60;85.70;;;;;;4927573;29;20831;-76
2023/12/18 16:09:55;;;;;;;0.10;0.10;;;7.60;85.90;;;;;;4933135;29;20398;-76
2023/12/18 16:12:21;;;;;;;0.10;0.10;;;7.60;85.90;;;;;;4930852;29;20032;-76
2023/12/18 16:14:46;;;;;;;0.10;0.10;;;7.70;86.10;;;;;;4940493;29;20108;-77
2023/12/18 16:17:12;;;;;;;0.10;0.10;;;7.70;85.80;;;;;;4934163;29;20047;-77
2023/12/18 16:19:38;;;;;;;0.10;0.10;;;7.60;86.10;;;;;;4935424;29;20058;-76
2023/12/18 16:22:03;;;;;;;0.10;0.10;;;7.70;86.00;;;;;;4937974;29;20032;-75
2023/12/18 16:24:31;;;;;;;0.10;0.10;;;7.70;86.00;;;;;;4930447;29;20031;-76
2023/12/18 16:26:57;;;;;;;0.10;0.10;;;7.70;86.00;;;;;;4935257;29;20042;-75
2023/12/18 16:29:23;;;;;;;0.10;0.10;;;7.70;85.90;;;;;;4927046;29;20052;-76
2023/12/18 16:31:48;;;;;;;0.10;0.10;;;7.70;86.00;;;;;;4920501;29;20150;-76
2023/12/18 16:34:14;;;;;;;0.10;0.10;;;7.70;85.80;;;;;;4950015;29;20509;-75
2023/12/18 16:36:40;;;;;;;0.10;0.10;;;7.70;85.90;;;;;;4920835;29;20038;-76
2023/12/18 16:39:06;;;;;;;0.10;0.10;;;7.70;85.60;;;;;;4924416;29;20036;-75
2023/12/18 16:41:34;;;;;;;0.10;0.10;;;7.70;85.90;;;;;;4930169;29;20515;-76
2023/12/18 16:44:00;;;;;;;0.10;0.10;;;7.70;85.80;;;;;;4926854;29;20107;-76
2023/12/18 16:46:26;;;;;;;0.10;0.10;;;7.60;86.10;;;;;;4927970;29;20066;-80
2023/12/18 16:48:52;;;;;;;0.10;0.10;;;7.60;86.10;;;;;;4929956;29;20016;-77
2023/12/18 16:51:18;;;;;;;0.10;0.10;;;7.60;86.10;;;;;;4932101;29;20107;-78
2023/12/18 16:53:43;;;;;;;0.10;0.10;;;7.60;86.30;;;;;;4923826;29;20131;-76
2023/12/18 16:56:09;;;;;;;0.10;0.10;;;7.60;86.30;;;;;;4925130;29;20048;-77
2023/12/18 16:58:35;;;;;;;0.10;0.10;;;7.60;86.30;;;;;;4924030;29;20469;-77
2023/12/18 17:01:01;;;;;;;0.10;0.10;;;7.60;86.10;;;;;;4927731;29;20868;-77
2023/12/18 17:03:27;;;;;;;0.10;0.10;;;7.60;86.40;;;;;;4932570;29;20032;-77
2023/12/18 17:05:53;;;;;;;0.10;0.10;;;7.60;86.30;;;;;;4926874;29;20086;-77
2023/12/18 17:08:18;;;;;;;0.10;0.10;;;7.70;86.30;;;;;;4927280;29;20060;-77
2023/12/18 17:10:44;;;;;;;0.10;0.10;;;7.70;86.20;;;;;;4926306;29;20024;-77
2023/12/18 17:13:14;;;;;;;0.10;0.10;;;7.70;86.30;;;;;;4926922;29;20030;-77
2023/12/18 17:15:42;;;;;;;0.10;0.10;;;7.70;86.20;;;;;;4931124;29;20036;-77
2023/12/18 17:18:11;;;;;;;0.10;0.10;;;7.70;86.30;;;;;;4926740;29;20052;-76
2023/12/18 17:20:37;;;;;;;0.10;0.10;;;7.70;86.30;;;;;;4926328;29;20040;-77
2023/12/18 17:23:04;;;;;;;0.10;0.10;;;7.70;86.30;;;;;;4930443;29;20114;-76
2023/12/18 17:25:30;;;;;;;0.10;0.10;;;7.70;86.20;;;;;;4928644;29;20918;-77
2023/12/18 17:27:56;;;;;;;0.10;0.10;;;7.70;86.30;;;;;;4927106;29;20032;-77
2023/12/18 17:30:22;;;;;;;0.10;0.10;;;7.70;86.30;;;;;;4926208;29;20058;-76
2023/12/18 17:32:48;;;;;;;0.10;0.10;;;7.70;86.20;;;;;;4926540;29;20114;-76
2023/12/18 17:35:14;;;;;;;0.10;0.10;;;7.70;86.30;;;;;;4918031;29;20561;-77
2023/12/18 17:37:40;;;;;;;0.10;0.10;;;7.70;86.10;;;;;;4921143;29;20019;-76
2023/12/18 17:40:06;;;;;;;0.10;0.10;;;7.70;86.30;;;;;;4909909;29;20096;-77
2023/12/18 17:42:32;;;;;;;0.10;0.10;;;7.70;86.30;;;;;;4917875;29;20028;-77
2023/12/18 17:45:02;;;;;;;0.10;0.10;;;7.60;86.30;;;;;;4927437;29;20036;-77
2023/12/18 17:47:28;;;;;;;0.10;0.10;;;7.50;86.50;;;;;;4908486;29;20150;-76
2023/12/18 17:49:53;;;;;;;0.10;0.10;;;7.40;86.80;;;;;;4926473;29;20023;-76
2023/12/18 17:52:20;;;;;;;0.10;0.10;;;7.40;86.90;;;;;;4908355;29;20058;-76
2023/12/18 17:54:46;;;;;;;0.10;0.10;;;7.50;87.00;;;;;;4927808;29;20535;-76
2023/12/18 17:57:11;;;;;;;0.10;0.10;;;7.40;86.80;;;;;;4931378;29;20111;-82
2023/12/18 17:59:40;;;;;;;0.10;0.10;;;7.50;87.10;;;;;;4930251;29;20118;-77
2023/12/18 18:02:05;;;;;;;0.10;0.10;;;7.50;87.00;;;;;;4913038;29;20561;-76
2023/12/18 18:04:31;;;;;;;0.10;0.10;;;7.50;86.90;;;;;;4933098;29;20036;-81
2023/12/18 18:06:57;;;;;;;0.10;0.10;;;7.50;86.70;;;;;;4930883;29;20499;-85
2023/12/18 18:09:22;;;;;;;0.10;0.10;;;7.40;87.00;;;;;;4911258;29;20035;-79
2023/12/18 18:11:48;;;;;;;0.10;0.10;;;7.30;87.20;;;;;;4912953;29;20019;-83
2023/12/18 18:14:14;;;;;;;0.10;0.10;;;7.30;87.30;;;;;;4911926;29;20059;-82
2023/12/18 18:16:39;;;;;;;0.10;0.10;;;7.20;87.50;;;;;;4928196;29;20028;-77
2023/12/18 18:19:07;;;;;;;0.10;0.10;;;7.20;87.70;;;;;;4908404;29;20080;-78
2023/12/18 18:21:34;;;;;;;0.10;0.10;;;7.20;87.70;;;;;;4916823;29;20032;-77
2023/12/18 18:24:00;;;;;;;0.10;0.10;;;7.20;87.80;;;;;;4917544;29;20043;-78
2023/12/18 18:26:25;;;;;;;0.10;0.10;;;7.20;87.90;;;;;;4918621;29;20028;-76